createdAt,value
2022-12-01T02:58:19.011Z,58.70
2022-12-01T03:03:37.895Z,75.30
2022-12-01T03:08:55.531Z,74.90
2022-12-01T03:14:23.181Z,74.70
2022-12-01T03:19:34.922Z,74.80
2022-12-01T03:24:42.590Z,75.30
2022-12-01T03:29:50.819Z,76.00
2022-12-01T03:35:06.461Z,76.00
2022-12-01T03:40:15.314Z,76.30
2022-12-01T03:45:27.487Z,76.70
2022-12-01T03:50:39.064Z,77.90
2022-12-01T03:55:44.636Z,78.20
2022-12-01T04:00:51.890Z,77.70
2022-12-01T04:05:56.828Z,78.00
2022-12-01T04:11:01.339Z,78.00
2022-12-01T04:16:06.385Z,78.00
2022-12-01T04:21:10.429Z,78.40
2022-12-01T04:26:15.898Z,78.70
2022-12-01T04:31:19.936Z,78.50
2022-12-01T04:36:25.871Z,78.40
2022-12-01T04:41:29.847Z,78.60
2022-12-01T04:46:34.441Z,78.70
2022-12-01T04:51:38.747Z,78.60
2022-12-01T04:56:42.966Z,78.50
2022-12-01T05:01:48.606Z,78.50
2022-12-01T05:06:55.895Z,78.90
2022-12-01T05:12:00.575Z,79.40
2022-12-01T05:17:04.723Z,79.10
2022-12-01T05:22:09.062Z,79.40
2022-12-01T05:27:13.318Z,79.30
2022-12-01T05:32:25.215Z,79.60
2022-12-01T05:37:49.354Z,79.70
2022-12-01T05:42:54.774Z,79.70
2022-12-01T05:47:59.830Z,80.50
2022-12-01T05:53:04.715Z,80.40
2022-12-01T05:58:08.942Z,80.70
2022-12-01T06:03:13.378Z,80.40
2022-12-01T06:08:17.924Z,81.00
2022-12-01T06:13:22.280Z,80.60
2022-12-01T06:18:28.302Z,80.90
2022-12-01T06:23:34.086Z,80.40
2022-12-01T06:28:38.770Z,80.80
2022-12-01T06:33:43.645Z,80.70
2022-12-01T06:38:48.415Z,81.00
2022-12-01T06:43:52.778Z,80.90
2022-12-01T06:48:57.149Z,80.70
2022-12-01T06:54:05.465Z,80.70
2022-12-01T06:59:14.260Z,81.30
2022-12-01T07:04:18.256Z,80.60
2022-12-01T07:09:23.024Z,80.50
2022-12-01T07:14:28.297Z,80.40
2022-12-01T07:19:32.917Z,81.10
2022-12-01T07:24:37.337Z,81.10
2022-12-01T07:29:41.212Z,80.50
2022-12-01T07:34:44.841Z,80.90
2022-12-01T07:39:48.823Z,80.90
2022-12-01T07:44:53.086Z,80.80
2022-12-01T07:49:58.339Z,80.90
2022-12-01T07:55:03.068Z,80.50
2022-12-01T08:00:08.230Z,80.30
2022-12-01T08:05:15.729Z,80.10
2022-12-01T08:10:20.164Z,79.90
2022-12-01T08:15:24.587Z,79.50
2022-12-01T08:20:29.609Z,78.40
2022-12-01T08:25:33.245Z,77.50
2022-12-01T08:30:37.482Z,76.00
2022-12-01T08:35:41.938Z,74.70
2022-12-01T08:40:45.985Z,73.30
2022-12-01T08:45:50.138Z,71.80
2022-12-01T08:51:04.599Z,70.10
2022-12-01T08:56:15.001Z,66.30
2022-12-01T09:01:19.775Z,66.10
2022-12-01T09:06:24.262Z,65.30
2022-12-01T09:11:28.314Z,65.70
2022-12-01T09:16:33.254Z,64.60
2022-12-01T09:21:37.960Z,64.00
2022-12-01T09:26:43.058Z,63.40
2022-12-01T09:31:47.531Z,63.30
2022-12-01T09:36:52.273Z,62.50
2022-12-01T09:42:14.351Z,60.80
2022-12-01T09:47:28.905Z,60.30
2022-12-01T09:52:55.205Z,61.30
2022-12-01T09:58:02.862Z,61.30
2022-12-01T10:03:21.945Z,62.00
2022-12-01T10:08:32.363Z,60.70
2022-12-01T10:13:36.640Z,61.10
2022-12-01T10:18:40.837Z,60.60
2022-12-01T10:23:50.750Z,60.10
2022-12-01T10:29:12.719Z,60.10
2022-12-01T10:34:33.987Z,60.00
2022-12-01T10:39:44.878Z,58.60
2022-12-01T10:44:50.188Z,58.30
2022-12-01T10:49:54.276Z,58.90
2022-12-01T10:54:57.835Z,57.20
2022-12-01T11:00:09.261Z,56.50
2022-12-01T11:05:41.701Z,55.70
